Tuppers Plains, Ohio
Current Conditions -  °F | °C
As of 4:10 AM on Wednesday 28 Jan 2015 (Local Time) from KUNI Reporting Station
Clear Clear  
Wind Chill: 11°   Ceiling: Unl
Heat Index: 11°   Visibility: 10mi
Dew Point:   Wind: 0mph
Humidity: 87%   Direction: NA
Pressure: 30.28"   Gusts: NA
Location:  39.17°N, 81.85°W
Report Text: KUNI 280910Z AUTO 00000KT 10SM CLR M12/M13 A3028 RMK AO2 T11181135
Loading
Personal Weather Stations






























Interactive Weather Map New forecast layout! Learn more

10-Day Weather Forecast

Advertisements
Track Severe Weather on mobile